Aérodrome :
LOGIN :

S'inscrire | Disclaimer

   EN    FR    IT 

 










Légende :    VFR   VFR Marginal   IFR   IFR Intensif   IFR Très Intensif
Visi : 
Plafond : 
>= 8 km
>= 3000ft
5 à 8 km
1000 à 3000 ft
1500m à 5 km
500 à 1000 ft
800 à 1500m
200 à 500 ft
< 800m
< 200 ft
Symboles :   Orages  Brouillard  Fortes neiges  Fortes précipitations  Vent > 20 kt
SIGMETs :   Divers  Orages  Givrage  Turbulence  Onde Orograph.  Cendres Volcan.







- Altitude de l'aérodrome : 74 ft
- Code IATA : EIN


EHEH - Eindhoven

DERNIER METAR :
  • 210725Z AUTO 08005KT 060V120 8000 BR BKN023 BKN041 OVC045 02/01 Q1014 WHT 08006KT 8000 -RA FEW020 SCT025 BKN040

METARs EXPIRÉS :
  • 210706Z AUTO 08005KT 050V110 8000 BR BKN023 OVC044 02/01 Q1014 WHT 08006KT 8000 -RA FEW020 SCT025 BKN040
  • 210702Z AUTO 08005KT 040V110 8000 BR SCT023 OVC044 02/01 Q1014 WHT 08006KT 8000 -RA FEW020 SCT025 BKN040
  • 210655Z AUTO 08006KT 040V100 8000 BR OVC045 02/01 Q1013 BLU 08006KT 8000 -RA FEW020 SCT025 BKN040
  • 210625Z AUTO 08005KT 050V120 7000 -DZ BKN039 OVC044 02/01 Q1013 REDZ WHT 08006KT 8000 -RA FEW020 SCT025 BKN040
  • 210556Z AUTO 08007KT 7000 -RA FEW015CB BKN038 OVC042 03/01 Q1013 WHT 08006KT 8000 -RA FEW020 SCT025 BKN040
  • 210551Z AUTO 07007KT 7000 -RA FEW015CB SCT038 OVC044 03/01 Q1013 WHT 08006KT 8000 -RA FEW020 SCT025 BKN040
  • 210543Z AUTO 07007KT 8000 -DZ FEW015CB BKN044 OVC048 03/01 Q1013 BLU 08005KT 8000 -RA FEW020 SCT025 BKN040
  • 210535Z AUTO 06006KT 8000 -DZ FEW022 BKN041 OVC046 03/01 Q1013 BLU 08005KT 8000 -RA FEW020 SCT025 BKN040
  • 210527Z AUTO 07005KT 050V110 9000 -RADZ SCT022 BKN041 OVC047 03/01 Q1013 WHT 08005KT 8000 -RA FEW020 SCT025 BKN040
  • 210518Z AUTO 08005KT 060V120 9000 -RADZ SCT023 BKN027 OVC044 03/01 Q1013 WHT 08005KT 9999 FEW020 SCT025 BKN040
  • 210455Z AUTO 08005KT 9999 BKN023 BKN049 OVC056 03/01 Q1012 WHT
  • 210425Z AUTO 09005KT 9999 FEW015CB SCT033 BKN048 03/01 Q1012 REDZ BLU

TAF TAF EHEH
Valide du 21 à 06h jusqu'au 22 à 12h UTC


210610Z 2106/2212 08006KT CAVOK
PROB30 2106/2108 SCT022 BKN040
Pas de NOTAMs connus pour ce terrain.



MET'MAP, la Météo Aéronautique d'un coup d'oeil ! - Copyright ORBIFLY Décembre 2007 - Disclaimer

ORBIFLY MET'MAP TEAM :

Programmation & Développement : Alexandra Zaïnal
Conception & Développement : Baudouin d'Aumeries
Co-Programmation & Développement : Marc-Olivier Méhu
Soutien technique & logistique : Manuel Goepfert

Contact : metmap@orbifly.com




SOURCES & CREDITS :

   NOAA